createdAt,value
2022-10-26T00:03:44.061Z,2.88
2022-10-26T00:06:18.859Z,2.80
2022-10-26T00:08:53.124Z,3.30
2022-10-26T00:11:28.970Z,2.47
2022-10-26T00:14:04.449Z,2.80
2022-10-26T00:16:38.642Z,2.80
2022-10-26T00:19:11.367Z,2.42
2022-10-26T00:21:44.269Z,2.47
2022-10-26T00:26:54.873Z,2.85
2022-10-26T00:29:27.675Z,2.88
2022-10-26T00:32:01.793Z,3.47
2022-10-26T00:34:34.823Z,2.22
2022-10-26T00:39:40.847Z,2.80
2022-10-26T00:42:18.460Z,2.38
2022-10-26T00:45:20.197Z,2.85
2022-10-26T00:47:58.140Z,2.58
2022-10-26T00:50:36.321Z,3.10
2022-10-26T00:53:10.013Z,3.15
2022-10-26T00:55:47.100Z,3.85
2022-10-26T00:58:21.795Z,2.55
2022-10-26T01:00:54.539Z,2.75
2022-10-26T01:03:29.099Z,2.70
2022-10-26T01:06:06.432Z,2.92
2022-10-26T01:08:39.612Z,2.90
2022-10-26T01:11:14.065Z,3.20
2022-10-26T01:13:49.711Z,3.08
2022-10-26T01:16:40.750Z,3.10
2022-10-26T01:19:47.779Z,3.25
2022-10-26T01:22:23.933Z,2.72
2022-10-26T01:25:05.313Z,2.92
2022-10-26T01:27:41.602Z,2.95
2022-10-26T01:30:21.449Z,2.83
2022-10-26T01:33:11.515Z,2.50
2022-10-26T01:35:52.655Z,2.63
2022-10-26T01:38:32.809Z,2.67
2022-10-26T01:41:13.043Z,2.92
2022-10-26T01:43:51.466Z,2.45
2022-10-26T01:46:28.212Z,2.53
2022-10-26T01:49:07.789Z,2.65
2022-10-26T01:51:42.708Z,2.70
2022-10-26T01:54:15.469Z,3.33
2022-10-26T01:56:51.701Z,2.40
2022-10-26T01:59:42.840Z,2.80
2022-10-26T02:03:02.550Z,2.55
2022-10-26T02:05:59.099Z,2.50
2022-10-26T02:08:47.038Z,2.83
2022-10-26T02:11:32.120Z,2.90
2022-10-26T02:16:56.253Z,2.35
2022-10-26T02:19:38.765Z,2.50
2022-10-26T02:22:17.755Z,2.47
2022-10-26T02:24:53.848Z,2.78
2022-10-26T02:27:28.689Z,2.78
2022-10-26T02:30:04.020Z,2.30
2022-10-26T02:32:40.270Z,2.22
2022-10-26T02:35:18.593Z,2.47
2022-10-26T02:37:53.539Z,2.00
2022-10-26T02:40:28.581Z,2.22
2022-10-26T02:43:05.456Z,2.45
2022-10-26T02:45:44.482Z,2.40
2022-10-26T02:48:17.584Z,2.40
2022-10-26T02:50:58.742Z,2.42
2022-10-26T02:53:36.159Z,2.20
2022-10-26T02:56:16.577Z,2.40
2022-10-26T02:58:56.482Z,2.67
2022-10-26T03:01:30.321Z,2.72
2022-10-26T03:04:03.385Z,2.50
2022-10-26T03:06:37.740Z,2.50
2022-10-26T03:09:10.530Z,2.78
2022-10-26T03:11:43.109Z,2.50
2022-10-26T03:14:16.178Z,2.40
2022-10-26T03:16:49.024Z,3.05
2022-10-26T03:19:24.588Z,2.72
2022-10-26T03:21:59.050Z,2.42
2022-10-26T03:24:31.854Z,2.35
2022-10-26T03:27:04.836Z,2.50
2022-10-26T03:29:37.545Z,3.08
2022-10-26T03:32:13.297Z,2.53
2022-10-26T03:34:53.787Z,2.50
2022-10-26T03:37:32.271Z,3.00
2022-10-26T03:40:05.982Z,3.00
2022-10-26T03:42:39.373Z,3.15
2022-10-26T03:45:13.202Z,2.72
2022-10-26T03:47:48.168Z,2.90
2022-10-26T03:50:27.341Z,2.67
2022-10-26T03:53:01.733Z,2.95
2022-10-26T03:55:34.918Z,2.50
2022-10-26T03:58:09.254Z,3.45
2022-10-26T04:00:44.862Z,2.45
2022-10-26T04:03:17.750Z,2.50
2022-10-26T04:05:50.625Z,2.63
2022-10-26T04:08:24.815Z,3.08
2022-10-26T04:10:59.930Z,2.90
2022-10-26T04:13:35.959Z,2.80
2022-10-26T04:16:09.698Z,2.78
2022-10-26T04:18:42.505Z,2.58
2022-10-26T04:21:15.259Z,3.13
2022-10-26T04:23:49.306Z,2.80
2022-10-26T04:26:22.080Z,3.47
2022-10-26T04:28:55.066Z,2.50
2022-10-26T04:34:00.554Z,2.53
2022-10-26T04:36:34.560Z,2.53
2022-10-26T04:39:09.163Z,3.53
2022-10-26T04:41:43.660Z,2.70
2022-10-26T04:44:19.559Z,2.92
2022-10-26T04:46:53.045Z,2.65
2022-10-26T04:49:25.888Z,2.47
2022-10-26T04:51:58.801Z,2.33
2022-10-26T04:54:32.939Z,3.42
2022-10-26T04:57:05.642Z,3.45
2022-10-26T04:59:38.384Z,3.55
2022-10-26T05:02:11.436Z,2.78
2022-10-26T05:07:17.077Z,2.97
2022-10-26T05:09:51.095Z,3.00
2022-10-26T05:12:24.549Z,3.05
2022-10-26T05:14:59.122Z,3.30
2022-10-26T05:17:32.280Z,3.10
2022-10-26T05:20:06.196Z,3.25
2022-10-26T05:22:38.978Z,2.67
2022-10-26T05:25:13.212Z,3.22
2022-10-26T05:27:45.998Z,2.72
2022-10-26T05:30:20.503Z,2.53
2022-10-26T05:32:58.981Z,2.88
2022-10-26T05:35:32.892Z,2.83
2022-10-26T05:38:09.871Z,2.28
2022-10-26T05:40:49.819Z,2.80
2022-10-26T05:43:24.471Z,2.60
2022-10-26T05:45:57.416Z,2.50
2022-10-26T05:48:31.305Z,2.72
2022-10-26T05:51:04.631Z,2.78
2022-10-26T05:53:45.182Z,3.25
2022-10-26T05:56:21.778Z,2.10
2022-10-26T05:58:55.746Z,2.53
2022-10-26T06:01:47.507Z,2.38
2022-10-26T06:04:31.477Z,2.63
2022-10-26T06:07:21.038Z,2.53
2022-10-26T06:09:55.712Z,2.53
2022-10-26T06:12:31.282Z,3.05
2022-10-26T06:15:10.361Z,2.50
2022-10-26T06:17:58.716Z,2.80
2022-10-26T06:20:50.677Z,2.85
2022-10-26T06:23:45.817Z,2.78
2022-10-26T06:26:34.367Z,3.05
2022-10-26T06:29:20.396Z,2.53
2022-10-26T06:31:54.836Z,2.30
2022-10-26T06:34:36.173Z,2.42
2022-10-26T06:37:09.638Z,2.20
2022-10-26T06:39:48.903Z,2.70
2022-10-26T06:42:24.577Z,2.53
2022-10-26T06:44:59.413Z,2.92
2022-10-26T06:47:41.528Z,2.35
2022-10-26T06:50:26.940Z,2.88
2022-10-26T06:53:11.456Z,2.65
2022-10-26T06:55:47.405Z,3.10
2022-10-26T06:58:22.806Z,2.65
2022-10-26T07:00:57.791Z,3.05
2022-10-26T07:03:30.592Z,2.33
2022-10-26T07:06:03.334Z,2.75
2022-10-26T07:08:36.220Z,2.65
2022-10-26T07:11:39.242Z,2.50
2022-10-26T07:14:12.630Z,2.30
2022-10-26T07:19:19.445Z,2.47
2022-10-26T07:21:52.292Z,2.33
2022-10-26T07:24:25.050Z,3.08
2022-10-26T07:26:58.872Z,2.50
2022-10-26T07:29:35.335Z,2.60
2022-10-26T07:32:09.878Z,2.40
2022-10-26T07:34:42.656Z,2.35
2022-10-26T07:37:15.331Z,2.50
2022-10-26T07:39:48.158Z,2.75
2022-10-26T07:42:20.962Z,2.40
2022-10-26T07:44:53.725Z,2.55
2022-10-26T07:47:27.721Z,2.45
2022-10-26T07:50:00.770Z,2.38
2022-10-26T07:55:10.347Z,2.53
2022-10-26T07:57:43.383Z,2.08
2022-10-26T08:00:20.068Z,2.70
2022-10-26T08:02:54.987Z,2.60
2022-10-26T08:05:27.822Z,2.28
2022-10-26T08:10:33.563Z,2.45
2022-10-26T08:13:06.352Z,2.10
2022-10-26T08:15:41.576Z,2.40
2022-10-26T08:18:15.878Z,2.25
2022-10-26T08:20:48.850Z,3.08
2022-10-26T08:26:11.415Z,2.85
2022-10-26T08:28:44.327Z,2.42
2022-10-26T08:31:17.371Z,2.83
2022-10-26T08:36:27.214Z,3.30
2022-10-26T08:41:41.867Z,2.85
2022-10-26T08:44:26.118Z,3.03
2022-10-26T08:47:06.787Z,2.80
2022-10-26T08:49:47.631Z,2.67
2022-10-26T08:52:25.442Z,2.70
2022-10-26T08:55:01.173Z,3.13
2022-10-26T08:57:40.991Z,2.78
2022-10-26T09:00:19.234Z,2.75
2022-10-26T09:02:52.497Z,2.63
2022-10-26T09:05:36.804Z,2.85
2022-10-26T09:08:19.080Z,2.80
2022-10-26T09:10:59.121Z,3.15
2022-10-26T09:13:43.187Z,2.90
2022-10-26T09:16:24.533Z,3.45
2022-10-26T09:19:09.975Z,2.97
2022-10-26T09:21:51.309Z,2.65
2022-10-26T09:24:31.930Z,2.95
2022-10-26T09:27:13.253Z,2.95
2022-10-26T09:29:46.168Z,3.33
2022-10-26T09:32:21.752Z,2.95
2022-10-26T09:34:58.097Z,3.03
2022-10-26T09:37:38.098Z,3.03
2022-10-26T09:40:19.170Z,3.10
2022-10-26T09:42:59.104Z,2.70
2022-10-26T09:45:34.567Z,3.33
2022-10-26T09:48:13.447Z,3.05
2022-10-26T09:50:49.714Z,2.85
2022-10-26T09:53:23.797Z,3.20
2022-10-26T09:56:07.198Z,2.97
2022-10-26T09:58:45.226Z,3.42
2022-10-26T10:01:24.103Z,3.25
2022-10-26T10:04:11.941Z,3.05
2022-10-26T10:06:46.731Z,3.03
2022-10-26T10:09:22.257Z,2.90
2022-10-26T10:11:56.677Z,3.08
2022-10-26T10:14:34.651Z,3.40
2022-10-26T10:17:20.885Z,3.25
2022-10-26T10:19:54.059Z,3.00
2022-10-26T10:22:27.542Z,2.78
2022-10-26T10:25:03.172Z,3.03
2022-10-26T10:27:35.925Z,3.00
2022-10-26T10:30:23.107Z,3.83
2022-10-26T10:33:07.094Z,3.83
2022-10-26T10:35:55.307Z,3.28
2022-10-26T10:38:28.458Z,3.50
2022-10-26T10:41:03.863Z,3.17
2022-10-26T10:43:37.722Z,3.78
2022-10-26T10:46:10.761Z,3.50
2022-10-26T10:51:23.391Z,3.90
2022-10-26T10:53:57.786Z,4.35
2022-10-26T10:56:41.257Z,3.72
2022-10-26T10:59:30.227Z,3.20
2022-10-26T11:02:34.662Z,4.40
2022-10-26T11:05:27.629Z,4.32
2022-10-26T11:08:07.327Z,3.80
2022-10-26T11:11:01.637Z,2.83
2022-10-26T11:13:47.308Z,3.75
2022-10-26T11:16:25.088Z,2.88
2022-10-26T11:19:05.548Z,2.72
2022-10-26T11:21:40.824Z,2.60
2022-10-26T11:24:21.483Z,2.95
2022-10-26T11:27:00.011Z,3.10
2022-10-26T11:29:43.488Z,3.38
2022-10-26T11:32:25.582Z,2.70
2022-10-26T11:35:06.462Z,2.58
2022-10-26T11:37:46.998Z,2.50
2022-10-26T11:40:32.354Z,5.90
2022-10-26T11:43:21.115Z,4.22
2022-10-26T11:46:12.771Z,3.58
2022-10-26T11:48:55.602Z,2.53
2022-10-26T11:51:40.629Z,2.70
2022-10-26T11:56:56.987Z,2.60
2022-10-26T11:59:51.568Z,2.50
2022-10-26T12:02:30.714Z,2.78
2022-10-26T12:05:09.361Z,2.63
2022-10-26T12:07:48.970Z,2.92
2022-10-26T12:10:35.099Z,2.30
2022-10-26T12:13:21.011Z,3.13
2022-10-26T12:16:04.304Z,2.33
2022-10-26T12:18:55.964Z,2.05
2022-10-26T12:21:31.958Z,2.25
2022-10-26T12:24:27.566Z,2.60
2022-10-26T12:27:01.653Z,2.33
2022-10-26T12:29:46.838Z,2.33
2022-10-26T12:32:54.879Z,2.58
2022-10-26T12:35:35.473Z,2.55
2022-10-26T12:38:47.085Z,1.75
2022-10-26T12:41:22.525Z,1.98
2022-10-26T12:48:38.969Z,2.13
2022-10-26T12:51:44.323Z,1.92
2022-10-26T12:54:32.429Z,2.83
2022-10-26T12:57:18.053Z,2.10
2022-10-26T13:00:02.057Z,2.22
2022-10-26T13:02:55.756Z,2.08
2022-10-26T13:06:00.287Z,1.80
2022-10-26T13:08:42.929Z,1.73
2022-10-26T13:11:20.063Z,1.70
2022-10-26T13:13:58.791Z,1.75
2022-10-26T13:16:31.982Z,2.22
2022-10-26T13:19:06.075Z,2.20
2022-10-26T13:21:48.789Z,1.58
2022-10-26T13:24:25.689Z,1.77
2022-10-26T13:27:27.940Z,2.33
2022-10-26T13:30:42.060Z,1.92
2022-10-26T13:33:37.807Z,2.10
2022-10-26T13:36:19.406Z,1.98
2022-10-26T13:38:52.468Z,1.90
2022-10-26T13:44:06.979Z,1.73
2022-10-26T13:46:44.535Z,1.85
2022-10-26T13:49:22.812Z,1.60
2022-10-26T13:51:55.934Z,1.90
2022-10-26T13:54:35.845Z,2.05
2022-10-26T13:57:18.946Z,1.55
2022-10-26T14:00:04.200Z,1.35
2022-10-26T14:02:49.950Z,1.30
2022-10-26T14:05:24.164Z,1.65
2022-10-26T14:07:59.715Z,1.38
2022-10-26T14:10:37.366Z,1.70
2022-10-26T14:13:16.244Z,1.88
2022-10-26T14:15:49.561Z,1.60
2022-10-26T14:18:25.081Z,1.65
2022-10-26T14:21:02.447Z,1.80
2022-10-26T14:23:36.846Z,1.90
2022-10-26T14:26:20.529Z,1.88
2022-10-26T14:28:56.848Z,1.70
2022-10-26T14:31:31.807Z,1.52
2022-10-26T14:34:06.021Z,1.55
2022-10-26T14:36:42.539Z,1.73
2022-10-26T14:39:25.801Z,2.17
2022-10-26T14:44:33.376Z,1.48
2022-10-26T14:47:06.238Z,1.65
2022-10-26T14:49:40.239Z,1.38
2022-10-26T14:52:28.941Z,1.63
2022-10-26T14:55:13.392Z,2.50
2022-10-26T14:57:50.607Z,1.60
2022-10-26T15:00:28.041Z,1.67
2022-10-26T15:03:15.346Z,2.25
2022-10-26T15:05:48.251Z,1.70
2022-10-26T15:08:52.638Z,1.65
2022-10-26T15:11:30.881Z,2.00
2022-10-26T15:14:04.390Z,1.58
2022-10-26T15:16:51.518Z,1.40
2022-10-26T15:19:25.493Z,1.90
2022-10-26T15:21:59.493Z,1.38
2022-10-26T15:24:41.619Z,1.55
2022-10-26T15:27:17.112Z,1.40
2022-10-26T15:29:51.924Z,1.70
2022-10-26T15:32:39.059Z,1.35
2022-10-26T15:35:39.724Z,1.40
2022-10-26T15:38:15.003Z,1.90
2022-10-26T15:40:50.790Z,1.70
2022-10-26T15:43:23.591Z,1.40
2022-10-26T15:45:57.490Z,1.65
2022-10-26T15:48:35.795Z,1.27
2022-10-26T15:51:13.670Z,1.95
2022-10-26T15:53:49.097Z,2.03
2022-10-26T15:56:27.548Z,1.50
2022-10-26T15:59:00.578Z,1.25
2022-10-26T16:01:33.811Z,1.83
2022-10-26T16:04:09.581Z,2.42
2022-10-26T16:06:43.622Z,1.52
2022-10-26T16:09:20.564Z,1.75
2022-10-26T16:11:53.796Z,1.95
2022-10-26T16:14:33.544Z,1.73
2022-10-26T16:17:10.273Z,1.83
2022-10-26T16:19:44.310Z,2.20
2022-10-26T16:22:17.612Z,2.03
2022-10-26T16:24:51.910Z,2.60
2022-10-26T16:27:24.979Z,2.20
2022-10-26T16:32:40.988Z,2.20
2022-10-26T16:35:18.310Z,1.70
2022-10-26T16:37:51.295Z,2.03
2022-10-26T16:42:58.869Z,1.55
2022-10-26T16:45:34.744Z,1.85
2022-10-26T16:48:15.243Z,2.28
2022-10-26T16:50:49.750Z,1.88
2022-10-26T16:53:24.979Z,1.60
2022-10-26T16:56:14.298Z,1.70
2022-10-26T16:58:52.872Z,2.72
2022-10-26T17:01:28.713Z,1.88
2022-10-26T17:04:05.040Z,2.05
2022-10-26T17:06:43.170Z,2.53
2022-10-26T17:09:16.063Z,1.90
2022-10-26T17:11:50.095Z,1.85
2022-10-26T17:14:23.541Z,1.90
2022-10-26T17:16:56.775Z,2.30
2022-10-26T17:19:33.546Z,2.80
2022-10-26T17:22:13.203Z,2.28
2022-10-26T17:24:46.481Z,2.30
2022-10-26T17:27:20.534Z,1.92
2022-10-26T17:29:53.548Z,2.00
2022-10-26T17:35:04.083Z,2.30
2022-10-26T17:55:02.891Z,2.05
2022-10-26T17:57:46.385Z,2.00
2022-10-26T18:00:22.390Z,2.83
2022-10-26T18:02:55.617Z,2.05
2022-10-26T18:05:54.374Z,2.58
2022-10-26T18:08:36.727Z,1.70
2022-10-26T18:11:49.567Z,2.40
2022-10-26T18:14:26.546Z,2.42
2022-10-26T18:16:59.846Z,1.98
2022-10-26T18:19:36.737Z,1.92
2022-10-26T18:22:10.187Z,1.85
2022-10-26T18:24:44.933Z,1.65
2022-10-26T18:27:24.356Z,1.80
2022-10-26T18:29:59.845Z,2.00
2022-10-26T18:32:49.433Z,1.75
2022-10-26T18:35:25.194Z,2.08
2022-10-26T18:37:58.538Z,2.13
2022-10-26T18:40:35.263Z,1.42
2022-10-26T18:43:11.255Z,2.28
2022-10-26T18:45:52.333Z,2.03
2022-10-26T18:48:27.015Z,1.40
2022-10-26T18:51:06.108Z,2.13
2022-10-26T18:53:43.987Z,1.60
2022-10-26T18:56:19.314Z,1.52
2022-10-26T18:58:54.541Z,1.70
2022-10-26T19:01:34.125Z,2.03
2022-10-26T19:04:09.421Z,1.90
2022-10-26T19:06:47.472Z,1.60
2022-10-26T19:09:25.064Z,1.50
2022-10-26T19:12:00.157Z,1.55
2022-10-26T19:14:38.614Z,1.60
2022-10-26T19:17:15.342Z,1.30
2022-10-26T19:19:49.314Z,1.60
2022-10-26T19:22:26.507Z,1.30
2022-10-26T19:25:05.068Z,1.60
2022-10-26T19:27:39.619Z,1.70
2022-10-26T19:30:16.953Z,1.70
2022-10-26T19:32:57.379Z,1.95
2022-10-26T19:35:31.507Z,1.50
2022-10-26T19:38:04.722Z,1.77
2022-10-26T19:40:37.860Z,1.70
2022-10-26T19:43:17.869Z,1.90
2022-10-26T19:45:50.834Z,1.52
2022-10-26T19:51:00.952Z,1.20
2022-10-26T19:53:34.073Z,1.90
2022-10-26T19:58:46.244Z,2.53
2022-10-26T20:01:22.518Z,1.60
2022-10-26T20:03:58.471Z,1.05
2022-10-26T20:06:57.183Z,1.80
2022-10-26T20:09:33.207Z,1.70
2022-10-26T20:12:18.826Z,1.50
2022-10-26T20:14:51.942Z,1.52
2022-10-26T20:20:05.819Z,2.17
2022-10-26T20:22:39.238Z,1.35
2022-10-26T20:25:12.583Z,1.52
2022-10-26T20:27:48.994Z,1.33
2022-10-26T20:30:22.350Z,1.63
2022-10-26T20:32:57.672Z,1.40
2022-10-26T20:35:34.169Z,1.40
2022-10-26T20:38:12.147Z,1.40
2022-10-26T20:40:45.919Z,1.90
2022-10-26T20:43:22.012Z,1.63
2022-10-26T20:45:59.970Z,2.33
2022-10-26T20:48:33.666Z,1.45
2022-10-26T20:51:23.901Z,1.70
2022-10-26T20:54:15.526Z,1.80
2022-10-26T20:56:51.185Z,1.40
2022-10-26T21:02:12.609Z,1.58
2022-10-26T21:04:45.967Z,1.80
2022-10-26T21:07:20.356Z,1.92
2022-10-26T21:09:53.588Z,1.73
2022-10-26T21:12:26.861Z,2.13
2022-10-26T21:15:10.292Z,1.88
2022-10-26T21:17:50.782Z,1.55
2022-10-26T21:20:29.335Z,1.90
2022-10-26T21:23:09.893Z,1.60
2022-10-26T21:25:43.152Z,1.67
2022-10-26T21:28:22.406Z,1.52
2022-10-26T21:30:55.743Z,1.73
2022-10-26T21:33:38.073Z,1.70
2022-10-26T21:36:14.951Z,1.52
2022-10-26T21:38:54.895Z,1.75
2022-10-26T21:41:30.155Z,1.95
2022-10-26T21:44:09.673Z,1.70
2022-10-26T21:46:47.936Z,1.95
2022-10-26T21:49:21.288Z,2.20
2022-10-26T21:51:56.815Z,1.63
2022-10-26T21:54:33.645Z,1.45
2022-10-26T21:57:19.943Z,1.48
2022-10-26T21:59:55.819Z,1.73
2022-10-26T22:02:29.079Z,1.60
2022-10-26T22:05:06.145Z,1.63
2022-10-26T22:07:39.033Z,1.67
2022-10-26T22:12:52.742Z,1.75
2022-10-26T22:15:25.833Z,1.55
2022-10-26T22:18:00.251Z,2.03
2022-10-26T22:20:35.170Z,2.38
2022-10-26T22:23:09.026Z,2.05
2022-10-26T22:25:43.542Z,1.60
2022-10-26T22:28:16.532Z,2.10
2022-10-26T22:33:28.054Z,1.30
2022-10-26T22:36:05.642Z,1.80
2022-10-26T22:38:39.221Z,1.40
2022-10-26T22:41:17.008Z,1.85
2022-10-26T22:43:50.946Z,1.92
2022-10-26T22:46:25.995Z,1.80
2022-10-26T22:49:26.837Z,1.67
2022-10-26T22:52:02.405Z,1.58
2022-10-26T22:54:35.707Z,1.88
2022-10-26T23:00:46.298Z,2.00
2022-10-26T23:03:21.328Z,1.55
2022-10-26T23:06:03.226Z,1.50
2022-10-26T23:08:36.212Z,1.35
2022-10-26T23:13:45.515Z,1.73
2022-10-26T23:16:19.236Z,1.52
2022-10-26T23:18:53.335Z,2.03
2022-10-26T23:21:30.269Z,1.50
2022-10-26T23:24:03.397Z,1.65
2022-10-26T23:26:36.943Z,1.55
2022-10-26T23:29:11.437Z,1.58
2022-10-26T23:31:46.607Z,1.50
2022-10-26T23:34:23.187Z,1.55
2022-10-26T23:36:56.311Z,1.40
2022-10-26T23:39:29.352Z,1.70
2022-10-26T23:44:36.786Z,1.80
2022-10-26T23:47:09.791Z,1.77
2022-10-26T23:52:15.730Z,2.53
